sensor_id;sensor_type;location;lat;lon;timestamp;P1;durP1;ratioP1;P2;durP2;ratioP2
48945;SDS011;34999;50.940;3.998;2022-12-18T00:01:14;107.90;;;40.73;;
48945;SDS011;34999;50.940;3.998;2022-12-18T00:04:05;115.53;;;42.83;;
48945;SDS011;34999;50.940;3.998;2022-12-18T00:06:55;136.47;;;46.53;;
48945;SDS011;34999;50.940;3.998;2022-12-18T00:09:43;113.90;;;43.10;;
48945;SDS011;34999;50.940;3.998;2022-12-18T00:12:31;117.67;;;43.10;;
48945;SDS011;34999;50.940;3.998;2022-12-18T00:15:21;117.17;;;42.00;;
48945;SDS011;34999;50.940;3.998;2022-12-18T00:18:09;120.00;;;41.67;;
48945;SDS011;34999;50.940;3.998;2022-12-18T00:21:05;117.13;;;41.60;;
48945;SDS011;34999;50.940;3.998;2022-12-18T00:23:57;110.70;;;39.80;;
48945;SDS011;34999;50.940;3.998;2022-12-18T00:26:45;120.67;;;41.50;;
48945;SDS011;34999;50.940;3.998;2022-12-18T00:29:34;113.30;;;40.33;;
48945;SDS011;34999;50.940;3.998;2022-12-18T00:32:23;122.33;;;39.87;;
48945;SDS011;34999;50.940;3.998;2022-12-18T00:35:12;118.37;;;40.57;;
48945;SDS011;34999;50.940;3.998;2022-12-18T00:38:00;115.03;;;38.80;;
48945;SDS011;34999;50.940;3.998;2022-12-18T00:40:49;109.20;;;38.83;;
48945;SDS011;34999;50.940;3.998;2022-12-18T00:43:38;123.27;;;40.37;;
48945;SDS011;34999;50.940;3.998;2022-12-18T00:46:27;115.50;;;41.30;;
48945;SDS011;34999;50.940;3.998;2022-12-18T00:49:17;112.70;;;41.07;;
48945;SDS011;34999;50.940;3.998;2022-12-18T00:52:06;109.23;;;38.90;;
48945;SDS011;34999;50.940;3.998;2022-12-18T00:54:56;114.73;;;39.73;;
48945;SDS011;34999;50.940;3.998;2022-12-18T00:57:51;115.90;;;41.30;;
48945;SDS011;34999;50.940;3.998;2022-12-18T01:00:40;119.73;;;40.37;;
48945;SDS011;34999;50.940;3.998;2022-12-18T01:03:29;115.50;;;40.07;;
48945;SDS011;34999;50.940;3.998;2022-12-18T01:06:18;106.97;;;37.77;;
48945;SDS011;34999;50.940;3.998;2022-12-18T01:09:07;108.67;;;38.83;;
48945;SDS011;34999;50.940;3.998;2022-12-18T01:11:35;107.23;;;38.33;;
48945;SDS011;34999;50.940;3.998;2022-12-18T01:14:03;106.17;;;37.20;;
48945;SDS011;34999;50.940;3.998;2022-12-18T01:16:32;106.77;;;38.90;;
48945;SDS011;34999;50.940;3.998;2022-12-18T01:19:00;106.87;;;39.10;;
48945;SDS011;34999;50.940;3.998;2022-12-18T01:21:30;110.00;;;38.23;;
48945;SDS011;34999;50.940;3.998;2022-12-18T01:23:58;108.30;;;36.73;;
48945;SDS011;34999;50.940;3.998;2022-12-18T01:26:26;96.57;;;36.57;;
48945;SDS011;34999;50.940;3.998;2022-12-18T01:28:56;100.77;;;36.70;;
48945;SDS011;34999;50.940;3.998;2022-12-18T01:31:25;106.67;;;36.47;;
48945;SDS011;34999;50.940;3.998;2022-12-18T01:33:55;100.73;;;36.67;;
48945;SDS011;34999;50.940;3.998;2022-12-18T01:36:26;97.53;;;36.87;;
48945;SDS011;34999;50.940;3.998;2022-12-18T01:38:58;104.67;;;36.60;;
48945;SDS011;34999;50.940;3.998;2022-12-18T01:41:28;98.27;;;36.93;;
48945;SDS011;34999;50.940;3.998;2022-12-18T01:47:26;111.70;;;37.23;;
48945;SDS011;34999;50.940;3.998;2022-12-18T01:49:59;98.00;;;36.70;;
48945;SDS011;34999;50.940;3.998;2022-12-18T01:52:30;92.77;;;34.93;;
48945;SDS011;34999;50.940;3.998;2022-12-18T01:55:02;105.33;;;36.33;;
48945;SDS011;34999;50.940;3.998;2022-12-18T01:57:32;103.03;;;35.87;;
48945;SDS011;34999;50.940;3.998;2022-12-18T02:00:03;95.10;;;35.43;;
48945;SDS011;34999;50.940;3.998;2022-12-18T02:02:34;104.60;;;35.67;;
48945;SDS011;34999;50.940;3.998;2022-12-18T02:05:03;96.57;;;35.73;;
48945;SDS011;34999;50.940;3.998;2022-12-18T02:07:36;97.37;;;36.97;;
48945;SDS011;34999;50.940;3.998;2022-12-18T02:10:13;103.43;;;36.13;;
48945;SDS011;34999;50.940;3.998;2022-12-18T02:12:45;102.27;;;35.23;;
48945;SDS011;34999;50.940;3.998;2022-12-18T02:15:21;95.03;;;33.63;;
48945;SDS011;34999;50.940;3.998;2022-12-18T02:17:56;92.70;;;34.57;;
48945;SDS011;34999;50.940;3.998;2022-12-18T02:20:32;90.50;;;33.57;;
48945;SDS011;34999;50.940;3.998;2022-12-18T02:23:08;102.03;;;35.37;;
48945;SDS011;34999;50.940;3.998;2022-12-18T02:25:54;104.07;;;34.20;;
48945;SDS011;34999;50.940;3.998;2022-12-18T02:28:30;86.87;;;33.23;;
48945;SDS011;34999;50.940;3.998;2022-12-18T02:31:01;93.57;;;31.70;;
48945;SDS011;34999;50.940;3.998;2022-12-18T02:33:33;91.50;;;33.40;;
48945;SDS011;34999;50.940;3.998;2022-12-18T02:36:04;84.60;;;32.20;;
48945;SDS011;34999;50.940;3.998;2022-12-18T02:38:37;93.53;;;32.27;;
48945;SDS011;34999;50.940;3.998;2022-12-18T02:41:08;87.73;;;32.97;;
48945;SDS011;34999;50.940;3.998;2022-12-18T02:43:37;89.67;;;32.43;;
48945;SDS011;34999;50.940;3.998;2022-12-18T02:49:06;88.87;;;32.73;;
48945;SDS011;34999;50.940;3.998;2022-12-18T02:51:43;89.27;;;32.93;;
48945;SDS011;34999;50.940;3.998;2022-12-18T02:54:20;92.77;;;32.70;;
48945;SDS011;34999;50.940;3.998;2022-12-18T02:57:03;88.20;;;32.93;;
48945;SDS011;34999;50.940;3.998;2022-12-18T02:59:39;91.03;;;32.83;;
48945;SDS011;34999;50.940;3.998;2022-12-18T03:02:16;87.67;;;32.57;;
48945;SDS011;34999;50.940;3.998;2022-12-18T03:04:49;94.07;;;32.40;;
48945;SDS011;34999;50.940;3.998;2022-12-18T03:07:28;78.13;;;30.50;;
48945;SDS011;34999;50.940;3.998;2022-12-18T03:10:05;81.50;;;29.53;;
48945;SDS011;34999;50.940;3.998;2022-12-18T03:12:38;79.43;;;28.23;;
48945;SDS011;34999;50.940;3.998;2022-12-18T03:15:13;81.37;;;30.67;;
48945;SDS011;34999;50.940;3.998;2022-12-18T03:17:46;84.80;;;29.90;;
48945;SDS011;34999;50.940;3.998;2022-12-18T03:20:20;85.83;;;29.47;;
48945;SDS011;34999;50.940;3.998;2022-12-18T03:22:53;92.30;;;30.83;;
48945;SDS011;34999;50.940;3.998;2022-12-18T03:25:25;78.83;;;28.43;;
48945;SDS011;34999;50.940;3.998;2022-12-18T03:27:58;82.67;;;29.77;;
48945;SDS011;34999;50.940;3.998;2022-12-18T03:30:28;72.97;;;28.70;;
48945;SDS011;34999;50.940;3.998;2022-12-18T03:33:00;74.40;;;29.07;;
48945;SDS011;34999;50.940;3.998;2022-12-18T03:35:33;81.33;;;28.43;;
48945;SDS011;34999;50.940;3.998;2022-12-18T03:38:07;77.80;;;28.37;;
48945;SDS011;34999;50.940;3.998;2022-12-18T03:40:38;76.97;;;26.57;;
48945;SDS011;34999;50.940;3.998;2022-12-18T03:43:16;73.57;;;27.63;;
48945;SDS011;34999;50.940;3.998;2022-12-18T03:45:53;67.90;;;27.47;;
48945;SDS011;34999;50.940;3.998;2022-12-18T03:48:31;66.90;;;26.80;;
48945;SDS011;34999;50.940;3.998;2022-12-18T03:51:05;73.67;;;26.33;;
48945;SDS011;34999;50.940;3.998;2022-12-18T03:53:40;73.50;;;27.47;;
48945;SDS011;34999;50.940;3.998;2022-12-18T03:56:14;70.93;;;26.20;;
48945;SDS011;34999;50.940;3.998;2022-12-18T03:58:46;69.57;;;25.80;;
48945;SDS011;34999;50.940;3.998;2022-12-18T04:01:17;70.43;;;25.47;;
48945;SDS011;34999;50.940;3.998;2022-12-18T04:03:48;69.33;;;26.47;;
48945;SDS011;34999;50.940;3.998;2022-12-18T04:06:18;68.63;;;25.20;;
48945;SDS011;34999;50.940;3.998;2022-12-18T04:08:47;64.30;;;24.40;;
48945;SDS011;34999;50.940;3.998;2022-12-18T04:11:16;72.30;;;24.87;;
48945;SDS011;34999;50.940;3.998;2022-12-18T04:13:46;67.27;;;24.60;;
48945;SDS011;34999;50.940;3.998;2022-12-18T04:16:14;59.07;;;24.37;;
48945;SDS011;34999;50.940;3.998;2022-12-18T04:18:42;65.93;;;24.43;;
48945;SDS011;34999;50.940;3.998;2022-12-18T04:21:11;68.33;;;24.63;;
48945;SDS011;34999;50.940;3.998;2022-12-18T04:23:41;64.43;;;24.00;;
48945;SDS011;34999;50.940;3.998;2022-12-18T04:26:09;58.67;;;24.37;;
48945;SDS011;34999;50.940;3.998;2022-12-18T04:28:38;58.30;;;24.50;;
48945;SDS011;34999;50.940;3.998;2022-12-18T04:31:07;57.80;;;23.10;;
48945;SDS011;34999;50.940;3.998;2022-12-18T04:33:36;60.33;;;23.63;;
48945;SDS011;34999;50.940;3.998;2022-12-18T04:36:05;56.53;;;24.00;;
48945;SDS011;34999;50.940;3.998;2022-12-18T04:38:33;63.47;;;23.60;;
48945;SDS011;34999;50.940;3.998;2022-12-18T04:41:02;67.07;;;24.27;;
48945;SDS011;34999;50.940;3.998;2022-12-18T04:43:30;67.43;;;23.87;;
48945;SDS011;34999;50.940;3.998;2022-12-18T04:46:02;58.47;;;22.63;;
48945;SDS011;34999;50.940;3.998;2022-12-18T04:48:36;54.93;;;22.10;;
48945;SDS011;34999;50.940;3.998;2022-12-18T04:51:05;69.80;;;23.10;;
48945;SDS011;34999;50.940;3.998;2022-12-18T04:53:33;66.53;;;23.10;;
48945;SDS011;34999;50.940;3.998;2022-12-18T04:56:03;53.93;;;21.93;;
48945;SDS011;34999;50.940;3.998;2022-12-18T04:58:32;58.20;;;21.97;;
48945;SDS011;34999;50.940;3.998;2022-12-18T05:01:01;63.83;;;24.23;;
48945;SDS011;34999;50.940;3.998;2022-12-18T05:03:29;63.10;;;22.90;;
48945;SDS011;34999;50.940;3.998;2022-12-18T05:05:59;59.30;;;21.87;;
48945;SDS011;34999;50.940;3.998;2022-12-18T05:08:28;61.07;;;23.40;;
48945;SDS011;34999;50.940;3.998;2022-12-18T05:10:59;59.10;;;22.20;;
48945;SDS011;34999;50.940;3.998;2022-12-18T05:13:28;61.70;;;22.40;;
48945;SDS011;34999;50.940;3.998;2022-12-18T05:15:57;57.33;;;22.17;;
48945;SDS011;34999;50.940;3.998;2022-12-18T05:18:25;57.03;;;22.50;;
48945;SDS011;34999;50.940;3.998;2022-12-18T05:20:54;62.90;;;22.30;;
48945;SDS011;34999;50.940;3.998;2022-12-18T05:23:24;55.43;;;22.27;;
48945;SDS011;34999;50.940;3.998;2022-12-18T05:25:52;53.43;;;22.20;;
48945;SDS011;34999;50.940;3.998;2022-12-18T05:28:22;57.50;;;22.60;;
48945;SDS011;34999;50.940;3.998;2022-12-18T05:30:51;57.23;;;22.07;;
48945;SDS011;34999;50.940;3.998;2022-12-18T05:33:21;67.27;;;23.60;;
48945;SDS011;34999;50.940;3.998;2022-12-18T05:35:51;63.40;;;22.87;;
48945;SDS011;34999;50.940;3.998;2022-12-18T05:38:20;63.63;;;22.80;;
48945;SDS011;34999;50.940;3.998;2022-12-18T05:40:51;56.83;;;21.47;;
48945;SDS011;34999;50.940;3.998;2022-12-18T05:43:20;54.70;;;21.10;;
48945;SDS011;34999;50.940;3.998;2022-12-18T05:45:52;57.80;;;22.33;;
48945;SDS011;34999;50.940;3.998;2022-12-18T05:48:20;53.50;;;21.80;;
48945;SDS011;34999;50.940;3.998;2022-12-18T05:50:49;57.17;;;20.93;;
48945;SDS011;34999;50.940;3.998;2022-12-18T05:53:19;51.20;;;20.13;;
48945;SDS011;34999;50.940;3.998;2022-12-18T05:55:48;58.17;;;21.73;;
48945;SDS011;34999;50.940;3.998;2022-12-18T05:58:17;56.67;;;21.40;;
48945;SDS011;34999;50.940;3.998;2022-12-18T06:00:46;53.63;;;21.47;;
48945;SDS011;34999;50.940;3.998;2022-12-18T06:03:14;54.97;;;21.00;;
48945;SDS011;34999;50.940;3.998;2022-12-18T06:05:43;54.23;;;20.87;;
48945;SDS011;34999;50.940;3.998;2022-12-18T06:08:14;55.27;;;20.80;;
48945;SDS011;34999;50.940;3.998;2022-12-18T06:10:48;49.83;;;20.97;;
48945;SDS011;34999;50.940;3.998;2022-12-18T06:13:20;51.17;;;20.63;;
48945;SDS011;34999;50.940;3.998;2022-12-18T06:15:49;59.30;;;20.63;;
48945;SDS011;34999;50.940;3.998;2022-12-18T06:18:17;50.10;;;21.03;;
48945;SDS011;34999;50.940;3.998;2022-12-18T06:20:51;57.37;;;21.43;;
48945;SDS011;34999;50.940;3.998;2022-12-18T06:23:23;60.27;;;21.87;;
48945;SDS011;34999;50.940;3.998;2022-12-18T06:25:51;51.80;;;20.10;;
48945;SDS011;34999;50.940;3.998;2022-12-18T06:28:21;54.30;;;19.67;;
48945;SDS011;34999;50.940;3.998;2022-12-18T06:30:49;59.10;;;21.00;;
48945;SDS011;34999;50.940;3.998;2022-12-18T06:33:18;56.20;;;21.00;;
48945;SDS011;34999;50.940;3.998;2022-12-18T06:35:46;50.87;;;20.23;;
48945;SDS011;34999;50.940;3.998;2022-12-18T06:38:14;55.53;;;22.10;;
48945;SDS011;34999;50.940;3.998;2022-12-18T06:40:42;58.23;;;21.63;;
48945;SDS011;34999;50.940;3.998;2022-12-18T06:43:11;48.77;;;20.50;;
48945;SDS011;34999;50.940;3.998;2022-12-18T06:45:41;47.83;;;20.13;;
48945;SDS011;34999;50.940;3.998;2022-12-18T06:48:09;60.63;;;21.23;;
48945;SDS011;34999;50.940;3.998;2022-12-18T06:50:41;63.50;;;23.07;;
48945;SDS011;34999;50.940;3.998;2022-12-18T06:53:09;61.13;;;22.90;;
48945;SDS011;34999;50.940;3.998;2022-12-18T06:55:38;70.33;;;25.10;;
48945;SDS011;34999;50.940;3.998;2022-12-18T06:58:06;65.13;;;24.27;;
48945;SDS011;34999;50.940;3.998;2022-12-18T07:00:36;53.50;;;21.60;;
48945;SDS011;34999;50.940;3.998;2022-12-18T07:03:06;55.57;;;23.40;;
48945;SDS011;34999;50.940;3.998;2022-12-18T07:05:34;57.17;;;23.10;;
48945;SDS011;34999;50.940;3.998;2022-12-18T07:08:07;55.80;;;22.77;;
48945;SDS011;34999;50.940;3.998;2022-12-18T07:10:40;55.87;;;23.13;;
48945;SDS011;34999;50.940;3.998;2022-12-18T07:13:13;59.70;;;22.40;;
48945;SDS011;34999;50.940;3.998;2022-12-18T07:15:42;61.23;;;23.13;;
48945;SDS011;34999;50.940;3.998;2022-12-18T07:18:12;53.03;;;21.73;;
48945;SDS011;34999;50.940;3.998;2022-12-18T07:20:40;51.97;;;22.07;;
48945;SDS011;34999;50.940;3.998;2022-12-18T07:23:08;53.80;;;20.97;;
48945;SDS011;34999;50.940;3.998;2022-12-18T07:25:37;52.40;;;21.67;;
48945;SDS011;34999;50.940;3.998;2022-12-18T07:28:06;54.00;;;21.33;;
48945;SDS011;34999;50.940;3.998;2022-12-18T07:30:42;56.50;;;20.90;;
48945;SDS011;34999;50.940;3.998;2022-12-18T07:33:14;54.60;;;21.43;;
48945;SDS011;34999;50.940;3.998;2022-12-18T07:35:43;55.63;;;21.13;;
48945;SDS011;34999;50.940;3.998;2022-12-18T07:38:11;55.97;;;20.80;;
48945;SDS011;34999;50.940;3.998;2022-12-18T07:40:46;54.00;;;20.90;;
48945;SDS011;34999;50.940;3.998;2022-12-18T07:43:14;48.50;;;20.77;;
48945;SDS011;34999;50.940;3.998;2022-12-18T07:45:43;51.00;;;20.73;;
48945;SDS011;34999;50.940;3.998;2022-12-18T07:48:11;49.90;;;20.03;;
48945;SDS011;34999;50.940;3.998;2022-12-18T07:50:41;56.63;;;22.00;;
48945;SDS011;34999;50.940;3.998;2022-12-18T07:53:09;46.13;;;19.67;;
48945;SDS011;34999;50.940;3.998;2022-12-18T07:55:38;54.47;;;21.47;;
48945;SDS011;34999;50.940;3.998;2022-12-18T07:58:26;52.93;;;20.33;;
48945;SDS011;34999;50.940;3.998;2022-12-18T08:00:54;56.30;;;22.53;;
48945;SDS011;34999;50.940;3.998;2022-12-18T08:03:33;48.57;;;20.53;;
48945;SDS011;34999;50.940;3.998;2022-12-18T08:06:02;60.57;;;22.73;;
48945;SDS011;34999;50.940;3.998;2022-12-18T08:08:33;53.93;;;21.63;;
48945;SDS011;34999;50.940;3.998;2022-12-18T08:11:14;52.73;;;21.03;;
48945;SDS011;34999;50.940;3.998;2022-12-18T08:13:43;55.30;;;21.60;;
48945;SDS011;34999;50.940;3.998;2022-12-18T08:16:11;60.73;;;21.23;;
48945;SDS011;34999;50.940;3.998;2022-12-18T08:18:41;54.27;;;21.73;;
48945;SDS011;34999;50.940;3.998;2022-12-18T08:21:09;48.03;;;20.73;;
48945;SDS011;34999;50.940;3.998;2022-12-18T08:23:38;51.40;;;22.03;;
48945;SDS011;34999;50.940;3.998;2022-12-18T08:26:09;54.80;;;21.60;;
48945;SDS011;34999;50.940;3.998;2022-12-18T08:28:37;53.77;;;21.47;;
48945;SDS011;34999;50.940;3.998;2022-12-18T08:31:06;51.20;;;21.80;;
48945;SDS011;34999;50.940;3.998;2022-12-18T08:33:35;54.17;;;20.30;;
48945;SDS011;34999;50.940;3.998;2022-12-18T08:36:06;48.97;;;21.63;;
48945;SDS011;34999;50.940;3.998;2022-12-18T08:38:36;57.57;;;22.97;;
48945;SDS011;34999;50.940;3.998;2022-12-18T08:41:05;56.37;;;24.33;;
48945;SDS011;34999;50.940;3.998;2022-12-18T08:43:37;56.57;;;24.77;;
48945;SDS011;34999;50.940;3.998;2022-12-18T08:46:23;57.87;;;24.37;;
48945;SDS011;34999;50.940;3.998;2022-12-18T08:48:54;62.40;;;24.60;;
48945;SDS011;34999;50.940;3.998;2022-12-18T08:51:23;63.17;;;25.90;;
48945;SDS011;34999;50.940;3.998;2022-12-18T08:56:40;71.70;;;28.43;;
48945;SDS011;34999;50.940;3.998;2022-12-18T08:59:08;71.67;;;31.17;;
48945;SDS011;34999;50.940;3.998;2022-12-18T09:01:44;73.43;;;29.97;;
48945;SDS011;34999;50.940;3.998;2022-12-18T09:04:14;64.23;;;29.27;;
48945;SDS011;34999;50.940;3.998;2022-12-18T09:06:43;66.77;;;28.00;;
48945;SDS011;34999;50.940;3.998;2022-12-18T09:09:12;60.63;;;26.37;;
48945;SDS011;34999;50.940;3.998;2022-12-18T09:11:40;59.73;;;25.00;;
48945;SDS011;34999;50.940;3.998;2022-12-18T09:14:09;63.73;;;28.17;;
48945;SDS011;34999;50.940;3.998;2022-12-18T09:16:37;58.37;;;26.13;;
48945;SDS011;34999;50.940;3.998;2022-12-18T09:19:06;58.87;;;24.87;;
48945;SDS011;34999;50.940;3.998;2022-12-18T09:21:37;52.47;;;22.70;;
48945;SDS011;34999;50.940;3.998;2022-12-18T09:24:14;49.57;;;22.93;;
48945;SDS011;34999;50.940;3.998;2022-12-18T09:26:43;49.57;;;22.60;;
48945;SDS011;34999;50.940;3.998;2022-12-18T09:29:14;54.53;;;23.60;;
48945;SDS011;34999;50.940;3.998;2022-12-18T09:31:44;51.20;;;23.00;;
48945;SDS011;34999;50.940;3.998;2022-12-18T09:34:12;34.43;;;17.93;;
48945;SDS011;34999;50.940;3.998;2022-12-18T09:36:41;30.93;;;15.67;;
48945;SDS011;34999;50.940;3.998;2022-12-18T09:39:09;31.10;;;17.10;;
48945;SDS011;34999;50.940;3.998;2022-12-18T09:41:43;43.87;;;19.57;;
48945;SDS011;34999;50.940;3.998;2022-12-18T09:44:15;41.43;;;20.30;;
48945;SDS011;34999;50.940;3.998;2022-12-18T09:46:49;31.33;;;16.03;;
48945;SDS011;34999;50.940;3.998;2022-12-18T09:49:26;33.97;;;17.47;;
48945;SDS011;34999;50.940;3.998;2022-12-18T09:51:59;29.13;;;15.30;;
48945;SDS011;34999;50.940;3.998;2022-12-18T09:54:33;29.70;;;14.40;;
48945;SDS011;34999;50.940;3.998;2022-12-18T09:57:15;24.90;;;13.57;;
48945;SDS011;34999;50.940;3.998;2022-12-18T09:59:48;24.47;;;12.90;;
48945;SDS011;34999;50.940;3.998;2022-12-18T10:02:21;24.80;;;13.97;;
48945;SDS011;34999;50.940;3.998;2022-12-18T10:04:56;29.23;;;14.43;;
48945;SDS011;34999;50.940;3.998;2022-12-18T10:07:33;24.77;;;13.47;;
48945;SDS011;34999;50.940;3.998;2022-12-18T10:10:13;21.70;;;11.90;;
48945;SDS011;34999;50.940;3.998;2022-12-18T10:12:52;21.00;;;12.13;;
48945;SDS011;34999;50.940;3.998;2022-12-18T10:15:31;22.60;;;12.03;;
48945;SDS011;34999;50.940;3.998;2022-12-18T10:18:14;24.17;;;13.27;;
48945;SDS011;34999;50.940;3.998;2022-12-18T10:20:52;24.83;;;13.67;;
48945;SDS011;34999;50.940;3.998;2022-12-18T10:23:25;28.27;;;15.23;;
48945;SDS011;34999;50.940;3.998;2022-12-18T10:26:00;26.43;;;14.83;;
48945;SDS011;34999;50.940;3.998;2022-12-18T10:28:33;30.03;;;14.50;;
48945;SDS011;34999;50.940;3.998;2022-12-18T10:31:04;26.93;;;14.07;;
48945;SDS011;34999;50.940;3.998;2022-12-18T10:33:34;23.37;;;13.47;;
48945;SDS011;34999;50.940;3.998;2022-12-18T10:36:03;27.10;;;14.73;;
48945;SDS011;34999;50.940;3.998;2022-12-18T10:38:32;25.17;;;13.73;;
48945;SDS011;34999;50.940;3.998;2022-12-18T10:41:01;28.07;;;15.03;;
48945;SDS011;34999;50.940;3.998;2022-12-18T10:43:35;29.37;;;14.70;;
48945;SDS011;34999;50.940;3.998;2022-12-18T10:46:11;30.27;;;15.77;;
48945;SDS011;34999;50.940;3.998;2022-12-18T10:48:50;27.60;;;15.70;;
48945;SDS011;34999;50.940;3.998;2022-12-18T10:51:22;26.57;;;15.40;;
48945;SDS011;34999;50.940;3.998;2022-12-18T10:53:59;24.20;;;14.27;;
48945;SDS011;34999;50.940;3.998;2022-12-18T10:56:33;28.97;;;15.00;;
48945;SDS011;34999;50.940;3.998;2022-12-18T10:59:05;30.13;;;14.57;;
48945;SDS011;34999;50.940;3.998;2022-12-18T11:01:45;26.27;;;15.13;;
48945;SDS011;34999;50.940;3.998;2022-12-18T11:04:16;27.43;;;14.67;;
48945;SDS011;34999;50.940;3.998;2022-12-18T11:06:52;25.53;;;15.40;;
48945;SDS011;34999;50.940;3.998;2022-12-18T11:09:29;28.80;;;15.53;;
48945;SDS011;34999;50.940;3.998;2022-12-18T11:11:59;29.70;;;15.97;;
48945;SDS011;34999;50.940;3.998;2022-12-18T11:14:32;27.70;;;15.47;;
48945;SDS011;34999;50.940;3.998;2022-12-18T11:17:17;34.33;;;16.43;;
48945;SDS011;34999;50.940;3.998;2022-12-18T11:19:52;29.43;;;15.73;;
48945;SDS011;34999;50.940;3.998;2022-12-18T11:22:23;27.33;;;16.23;;
48945;SDS011;34999;50.940;3.998;2022-12-18T11:24:53;29.10;;;15.57;;
48945;SDS011;34999;50.940;3.998;2022-12-18T11:27:47;32.23;;;17.53;;
48945;SDS011;34999;50.940;3.998;2022-12-18T11:30:22;32.27;;;15.93;;
48945;SDS011;34999;50.940;3.998;2022-12-18T11:32:54;30.33;;;16.90;;
48945;SDS011;34999;50.940;3.998;2022-12-18T11:35:31;32.07;;;16.13;;
48945;SDS011;34999;50.940;3.998;2022-12-18T11:38:18;29.97;;;16.13;;
48945;SDS011;34999;50.940;3.998;2022-12-18T11:40:52;28.13;;;15.97;;
48945;SDS011;34999;50.940;3.998;2022-12-18T11:43:26;33.43;;;17.20;;
48945;SDS011;34999;50.940;3.998;2022-12-18T11:45:59;33.60;;;17.50;;
48945;SDS011;34999;50.940;3.998;2022-12-18T11:48:30;33.43;;;17.07;;
48945;SDS011;34999;50.940;3.998;2022-12-18T11:51:02;32.23;;;17.00;;
48945;SDS011;34999;50.940;3.998;2022-12-18T11:53:33;33.30;;;18.00;;
48945;SDS011;34999;50.940;3.998;2022-12-18T11:56:07;34.63;;;17.73;;
48945;SDS011;34999;50.940;3.998;2022-12-18T11:58:55;33.70;;;17.57;;
48945;SDS011;34999;50.940;3.998;2022-12-18T12:01:34;30.77;;;16.47;;
48945;SDS011;34999;50.940;3.998;2022-12-18T12:07:21;27.07;;;15.23;;
48945;SDS011;34999;50.940;3.998;2022-12-18T12:10:00;28.87;;;15.53;;
48945;SDS011;34999;50.940;3.998;2022-12-18T12:12:39;33.43;;;16.83;;
48945;SDS011;34999;50.940;3.998;2022-12-18T12:15:28;27.30;;;15.60;;
48945;SDS011;34999;50.940;3.998;2022-12-18T12:18:08;26.03;;;14.57;;
48945;SDS011;34999;50.940;3.998;2022-12-18T12:20:49;29.10;;;16.27;;
48945;SDS011;34999;50.940;3.998;2022-12-18T12:23:23;31.57;;;15.60;;
48945;SDS011;34999;50.940;3.998;2022-12-18T12:26:01;29.73;;;15.63;;
48945;SDS011;34999;50.940;3.998;2022-12-18T12:28:42;32.83;;;16.53;;
48945;SDS011;34999;50.940;3.998;2022-12-18T12:31:26;28.30;;;15.20;;
48945;SDS011;34999;50.940;3.998;2022-12-18T12:34:08;29.47;;;14.87;;
48945;SDS011;34999;50.940;3.998;2022-12-18T12:36:45;28.87;;;15.20;;
48945;SDS011;34999;50.940;3.998;2022-12-18T12:39:27;27.77;;;14.93;;
48945;SDS011;34999;50.940;3.998;2022-12-18T12:41:58;31.87;;;16.13;;
48945;SDS011;34999;50.940;3.998;2022-12-18T12:44:45;30.43;;;16.37;;
48945;SDS011;34999;50.940;3.998;2022-12-18T12:47:23;27.33;;;14.20;;
48945;SDS011;34999;50.940;3.998;2022-12-18T12:49:56;27.70;;;14.33;;
48945;SDS011;34999;50.940;3.998;2022-12-18T12:52:30;33.33;;;15.63;;
48945;SDS011;34999;50.940;3.998;2022-12-18T12:55:04;29.43;;;14.23;;
48945;SDS011;34999;50.940;3.998;2022-12-18T12:57:41;28.27;;;15.17;;
48945;SDS011;34999;50.940;3.998;2022-12-18T13:00:16;28.80;;;14.67;;
48945;SDS011;34999;50.940;3.998;2022-12-18T13:02:47;29.67;;;14.40;;
48945;SDS011;34999;50.940;3.998;2022-12-18T13:05:26;31.40;;;16.37;;
48945;SDS011;34999;50.940;3.998;2022-12-18T13:08:02;32.10;;;16.53;;
48945;SDS011;34999;50.940;3.998;2022-12-18T13:10:34;35.03;;;15.33;;
48945;SDS011;34999;50.940;3.998;2022-12-18T13:13:04;29.47;;;15.20;;
48945;SDS011;34999;50.940;3.998;2022-12-18T13:15:41;28.43;;;14.87;;
48945;SDS011;34999;50.940;3.998;2022-12-18T13:18:13;32.90;;;16.43;;
48945;SDS011;34999;50.940;3.998;2022-12-18T13:20:46;30.53;;;15.90;;
48945;SDS011;34999;50.940;3.998;2022-12-18T13:23:31;36.00;;;16.50;;
48945;SDS011;34999;50.940;3.998;2022-12-18T13:29:01;34.37;;;17.07;;
48945;SDS011;34999;50.940;3.998;2022-12-18T13:34:26;34.73;;;16.97;;
48945;SDS011;34999;50.940;3.998;2022-12-18T13:40:01;31.77;;;16.03;;
48945;SDS011;34999;50.940;3.998;2022-12-18T13:42:50;35.03;;;17.27;;
48945;SDS011;34999;50.940;3.998;2022-12-18T13:45:43;39.80;;;17.93;;
48945;SDS011;34999;50.940;3.998;2022-12-18T13:48:20;35.93;;;17.60;;
48945;SDS011;34999;50.940;3.998;2022-12-18T13:50:52;34.33;;;17.10;;
48945;SDS011;34999;50.940;3.998;2022-12-18T13:53:24;37.83;;;17.60;;
48945;SDS011;34999;50.940;3.998;2022-12-18T13:55:57;38.27;;;18.80;;
48945;SDS011;34999;50.940;3.998;2022-12-18T13:58:26;39.17;;;17.63;;
48945;SDS011;34999;50.940;3.998;2022-12-18T14:00:55;40.50;;;19.30;;
48945;SDS011;34999;50.940;3.998;2022-12-18T14:03:26;38.63;;;18.63;;
48945;SDS011;34999;50.940;3.998;2022-12-18T14:06:00;39.87;;;17.90;;
48945;SDS011;34999;50.940;3.998;2022-12-18T14:08:33;39.87;;;19.07;;
48945;SDS011;34999;50.940;3.998;2022-12-18T14:14:46;40.93;;;18.30;;
48945;SDS011;34999;50.940;3.998;2022-12-18T14:17:20;41.57;;;18.53;;
48945;SDS011;34999;50.940;3.998;2022-12-18T14:19:50;43.93;;;19.43;;
48945;SDS011;34999;50.940;3.998;2022-12-18T14:22:19;40.27;;;18.50;;
48945;SDS011;34999;50.940;3.998;2022-12-18T14:25:05;41.50;;;19.50;;
48945;SDS011;34999;50.940;3.998;2022-12-18T14:27:42;43.37;;;20.23;;
48945;SDS011;34999;50.940;3.998;2022-12-18T14:30:24;41.63;;;19.23;;
48945;SDS011;34999;50.940;3.998;2022-12-18T14:33:03;44.23;;;19.73;;
48945;SDS011;34999;50.940;3.998;2022-12-18T14:35:36;41.83;;;18.77;;
48945;SDS011;34999;50.940;3.998;2022-12-18T14:38:22;43.77;;;18.43;;
48945;SDS011;34999;50.940;3.998;2022-12-18T14:40:53;44.03;;;19.13;;
48945;SDS011;34999;50.940;3.998;2022-12-18T14:43:26;44.07;;;20.33;;
48945;SDS011;34999;50.940;3.998;2022-12-18T14:45:57;41.10;;;19.83;;
48945;SDS011;34999;50.940;3.998;2022-12-18T14:48:35;43.73;;;19.77;;
48945;SDS011;34999;50.940;3.998;2022-12-18T14:51:05;39.03;;;17.57;;
48945;SDS011;34999;50.940;3.998;2022-12-18T14:53:43;39.27;;;18.43;;
48945;SDS011;34999;50.940;3.998;2022-12-18T14:56:21;43.23;;;19.30;;
48945;SDS011;34999;50.940;3.998;2022-12-18T14:58:52;45.30;;;20.27;;
48945;SDS011;34999;50.940;3.998;2022-12-18T15:01:25;41.87;;;18.23;;
48945;SDS011;34999;50.940;3.998;2022-12-18T15:03:56;40.37;;;18.93;;
48945;SDS011;34999;50.940;3.998;2022-12-18T15:06:27;41.27;;;19.73;;
48945;SDS011;34999;50.940;3.998;2022-12-18T15:08:58;42.23;;;19.40;;
48945;SDS011;34999;50.940;3.998;2022-12-18T15:11:29;38.57;;;17.27;;
48945;SDS011;34999;50.940;3.998;2022-12-18T15:16:53;38.97;;;18.93;;
48945;SDS011;34999;50.940;3.998;2022-12-18T15:19:25;38.47;;;18.13;;
48945;SDS011;34999;50.940;3.998;2022-12-18T15:21:59;43.00;;;18.70;;
48945;SDS011;34999;50.940;3.998;2022-12-18T15:24:32;44.83;;;19.10;;
48945;SDS011;34999;50.940;3.998;2022-12-18T15:27:01;46.07;;;19.70;;